sensor_id;sensor_type;location;lat;lon;timestamp;P1;durP1;ratioP1;P2;durP2;ratioP2
26582;SDS011;14230;45.382;10.998;2023-03-01T00:01:39;16.17;;;8.70;;
26582;SDS011;14230;45.382;10.998;2023-03-01T00:04:07;12.73;;;7.45;;
26582;SDS011;14230;45.382;10.998;2023-03-01T00:06:34;13.68;;;8.05;;
26582;SDS011;14230;45.382;10.998;2023-03-01T00:09:02;12.52;;;7.20;;
26582;SDS011;14230;45.382;10.998;2023-03-01T00:11:30;14.68;;;8.05;;
26582;SDS011;14230;45.382;10.998;2023-03-01T00:13:59;12.27;;;8.13;;
26582;SDS011;14230;45.382;10.998;2023-03-01T00:16:28;16.58;;;8.48;;
26582;SDS011;14230;45.382;10.998;2023-03-01T00:18:58;11.98;;;8.05;;
26582;SDS011;14230;45.382;10.998;2023-03-01T00:21:26;14.68;;;8.30;;
26582;SDS011;14230;45.382;10.998;2023-03-01T00:23:54;16.45;;;7.93;;
26582;SDS011;14230;45.382;10.998;2023-03-01T00:26:23;14.48;;;8.05;;
26582;SDS011;14230;45.382;10.998;2023-03-01T00:28:51;13.02;;;8.23;;
26582;SDS011;14230;45.382;10.998;2023-03-01T00:31:20;13.27;;;8.38;;
26582;SDS011;14230;45.382;10.998;2023-03-01T00:33:54;14.77;;;8.40;;
26582;SDS011;14230;45.382;10.998;2023-03-01T00:36:26;15.13;;;8.63;;
26582;SDS011;14230;45.382;10.998;2023-03-01T00:38:56;13.50;;;7.95;;
26582;SDS011;14230;45.382;10.998;2023-03-01T00:41:23;17.10;;;9.27;;
26582;SDS011;14230;45.382;10.998;2023-03-01T00:43:53;18.63;;;9.25;;
26582;SDS011;14230;45.382;10.998;2023-03-01T00:46:22;16.48;;;9.70;;
26582;SDS011;14230;45.382;10.998;2023-03-01T00:48:52;16.23;;;9.27;;
26582;SDS011;14230;45.382;10.998;2023-03-01T00:51:22;17.17;;;9.43;;
26582;SDS011;14230;45.382;10.998;2023-03-01T00:53:52;16.38;;;9.32;;
26582;SDS011;14230;45.382;10.998;2023-03-01T00:56:22;16.45;;;10.18;;
26582;SDS011;14230;45.382;10.998;2023-03-01T00:58:49;17.15;;;9.70;;
26582;SDS011;14230;45.382;10.998;2023-03-01T01:01:19;15.85;;;9.27;;
26582;SDS011;14230;45.382;10.998;2023-03-01T01:03:52;17.45;;;9.07;;
26582;SDS011;14230;45.382;10.998;2023-03-01T01:06:28;16.08;;;10.15;;
26582;SDS011;14230;45.382;10.998;2023-03-01T01:08:58;17.45;;;9.55;;
26582;SDS011;14230;45.382;10.998;2023-03-01T01:11:28;17.92;;;10.10;;
26582;SDS011;14230;45.382;10.998;2023-03-01T01:13:57;17.63;;;10.18;;
26582;SDS011;14230;45.382;10.998;2023-03-01T01:16:25;18.25;;;11.13;;
26582;SDS011;14230;45.382;10.998;2023-03-01T01:18:55;18.45;;;9.70;;
26582;SDS011;14230;45.382;10.998;2023-03-01T01:21:24;22.73;;;11.20;;
26582;SDS011;14230;45.382;10.998;2023-03-01T01:23:52;21.45;;;9.85;;
26582;SDS011;14230;45.382;10.998;2023-03-01T01:26:24;22.90;;;9.45;;
26582;SDS011;14230;45.382;10.998;2023-03-01T01:28:54;17.35;;;9.20;;
26582;SDS011;14230;45.382;10.998;2023-03-01T01:31:24;16.55;;;10.02;;
26582;SDS011;14230;45.382;10.998;2023-03-01T01:33:52;18.60;;;9.80;;
26582;SDS011;14230;45.382;10.998;2023-03-01T01:36:21;23.38;;;10.38;;
26582;SDS011;14230;45.382;10.998;2023-03-01T01:38:50;21.75;;;10.95;;
26582;SDS011;14230;45.382;10.998;2023-03-01T01:41:18;20.75;;;10.50;;
26582;SDS011;14230;45.382;10.998;2023-03-01T01:43:47;23.33;;;11.73;;
26582;SDS011;14230;45.382;10.998;2023-03-01T01:46:36;18.95;;;11.13;;
26582;SDS011;14230;45.382;10.998;2023-03-01T01:49:22;22.15;;;11.23;;
26582;SDS011;14230;45.382;10.998;2023-03-01T01:51:51;18.83;;;11.20;;
26582;SDS011;14230;45.382;10.998;2023-03-01T01:57:03;19.45;;;10.23;;
26582;SDS011;14230;45.382;10.998;2023-03-01T01:59:36;19.92;;;10.32;;
26582;SDS011;14230;45.382;10.998;2023-03-01T02:02:05;19.83;;;10.63;;
26582;SDS011;14230;45.382;10.998;2023-03-01T02:04:33;17.05;;;10.27;;
26582;SDS011;14230;45.382;10.998;2023-03-01T02:07:09;18.40;;;10.32;;
26582;SDS011;14230;45.382;10.998;2023-03-01T02:09:49;17.27;;;10.18;;
26582;SDS011;14230;45.382;10.998;2023-03-01T02:12:20;23.00;;;11.20;;
26582;SDS011;14230;45.382;10.998;2023-03-01T02:14:50;15.35;;;9.70;;
26582;SDS011;14230;45.382;10.998;2023-03-01T02:17:18;19.58;;;10.63;;
26582;SDS011;14230;45.382;10.998;2023-03-01T02:20:05;19.35;;;10.77;;
26582;SDS011;14230;45.382;10.998;2023-03-01T02:22:57;19.42;;;10.35;;
26582;SDS011;14230;45.382;10.998;2023-03-01T02:30:43;20.42;;;11.00;;
26582;SDS011;14230;45.382;10.998;2023-03-01T02:33:35;18.02;;;10.80;;
26582;SDS011;14230;45.382;10.998;2023-03-01T02:36:05;24.02;;;12.88;;
26582;SDS011;14230;45.382;10.998;2023-03-01T02:38:36;25.67;;;12.77;;
26582;SDS011;14230;45.382;10.998;2023-03-01T02:41:03;27.10;;;13.68;;
26582;SDS011;14230;45.382;10.998;2023-03-01T02:43:33;28.60;;;12.90;;
26582;SDS011;14230;45.382;10.998;2023-03-01T02:46:05;25.85;;;13.88;;
26582;SDS011;14230;45.382;10.998;2023-03-01T02:48:48;27.13;;;12.80;;
26582;SDS011;14230;45.382;10.998;2023-03-01T02:51:21;27.20;;;13.07;;
26582;SDS011;14230;45.382;10.998;2023-03-01T02:56:42;29.88;;;14.43;;
26582;SDS011;14230;45.382;10.998;2023-03-01T02:59:11;22.85;;;12.52;;
26582;SDS011;14230;45.382;10.998;2023-03-01T03:01:39;23.05;;;12.85;;
26582;SDS011;14230;45.382;10.998;2023-03-01T03:04:09;25.15;;;12.52;;
26582;SDS011;14230;45.382;10.998;2023-03-01T03:06:38;30.15;;;13.63;;
26582;SDS011;14230;45.382;10.998;2023-03-01T03:09:06;24.50;;;12.63;;
26582;SDS011;14230;45.382;10.998;2023-03-01T03:11:35;24.27;;;12.32;;
26582;SDS011;14230;45.382;10.998;2023-03-01T03:14:03;25.98;;;12.38;;
26582;SDS011;14230;45.382;10.998;2023-03-01T03:16:34;24.48;;;12.82;;
26582;SDS011;14230;45.382;10.998;2023-03-01T03:19:02;28.90;;;13.93;;
26582;SDS011;14230;45.382;10.998;2023-03-01T03:21:32;25.17;;;13.13;;
26582;SDS011;14230;45.382;10.998;2023-03-01T03:23:59;30.02;;;14.15;;
26582;SDS011;14230;45.382;10.998;2023-03-01T03:26:27;25.58;;;13.75;;
26582;SDS011;14230;45.382;10.998;2023-03-01T03:28:55;29.98;;;14.95;;
26582;SDS011;14230;45.382;10.998;2023-03-01T03:31:23;30.10;;;15.68;;
26582;SDS011;14230;45.382;10.998;2023-03-01T03:33:51;26.63;;;14.30;;
26582;SDS011;14230;45.382;10.998;2023-03-01T03:36:20;22.42;;;14.00;;
26582;SDS011;14230;45.382;10.998;2023-03-01T03:38:49;28.20;;;15.07;;
26582;SDS011;14230;45.382;10.998;2023-03-01T03:41:17;26.98;;;14.80;;
26582;SDS011;14230;45.382;10.998;2023-03-01T03:43:44;27.85;;;15.07;;
26582;SDS011;14230;45.382;10.998;2023-03-01T03:46:12;26.73;;;15.32;;
26582;SDS011;14230;45.382;10.998;2023-03-01T03:48:41;26.05;;;14.43;;
26582;SDS011;14230;45.382;10.998;2023-03-01T03:51:12;25.55;;;14.23;;
26582;SDS011;14230;45.382;10.998;2023-03-01T03:53:41;30.50;;;14.48;;
26582;SDS011;14230;45.382;10.998;2023-03-01T03:56:09;32.13;;;15.52;;
26582;SDS011;14230;45.382;10.998;2023-03-01T03:58:37;32.10;;;16.35;;
26582;SDS011;14230;45.382;10.998;2023-03-01T04:01:05;36.47;;;17.08;;
26582;SDS011;14230;45.382;10.998;2023-03-01T04:03:33;31.48;;;16.70;;
26582;SDS011;14230;45.382;10.998;2023-03-01T04:06:02;30.98;;;16.00;;
26582;SDS011;14230;45.382;10.998;2023-03-01T04:08:30;32.03;;;17.35;;
26582;SDS011;14230;45.382;10.998;2023-03-01T04:10:59;33.05;;;18.20;;
26582;SDS011;14230;45.382;10.998;2023-03-01T04:13:48;33.95;;;17.58;;
26582;SDS011;14230;45.382;10.998;2023-03-01T04:16:16;32.05;;;17.98;;
26582;SDS011;14230;45.382;10.998;2023-03-01T04:18:45;37.25;;;18.35;;
26582;SDS011;14230;45.382;10.998;2023-03-01T04:21:13;39.47;;;20.50;;
26582;SDS011;14230;45.382;10.998;2023-03-01T04:23:40;34.72;;;18.67;;
26582;SDS011;14230;45.382;10.998;2023-03-01T04:26:08;33.55;;;17.80;;
26582;SDS011;14230;45.382;10.998;2023-03-01T04:28:37;38.08;;;17.90;;
26582;SDS011;14230;45.382;10.998;2023-03-01T04:31:14;31.45;;;17.48;;
26582;SDS011;14230;45.382;10.998;2023-03-01T04:33:48;35.97;;;18.92;;
26582;SDS011;14230;45.382;10.998;2023-03-01T04:36:21;32.28;;;17.75;;
26582;SDS011;14230;45.382;10.998;2023-03-01T04:38:51;37.60;;;18.95;;
26582;SDS011;14230;45.382;10.998;2023-03-01T04:41:20;33.80;;;17.13;;
26582;SDS011;14230;45.382;10.998;2023-03-01T04:43:49;33.15;;;17.13;;
26582;SDS011;14230;45.382;10.998;2023-03-01T04:46:18;35.65;;;17.08;;
26582;SDS011;14230;45.382;10.998;2023-03-01T04:48:47;31.60;;;16.50;;
26582;SDS011;14230;45.382;10.998;2023-03-01T04:51:15;30.58;;;16.73;;
26582;SDS011;14230;45.382;10.998;2023-03-01T04:53:43;33.92;;;16.95;;
26582;SDS011;14230;45.382;10.998;2023-03-01T04:56:11;33.10;;;17.00;;
26582;SDS011;14230;45.382;10.998;2023-03-01T04:58:42;33.97;;;16.90;;
26582;SDS011;14230;45.382;10.998;2023-03-01T05:01:11;34.00;;;18.23;;
26582;SDS011;14230;45.382;10.998;2023-03-01T05:03:47;34.00;;;17.67;;
26582;SDS011;14230;45.382;10.998;2023-03-01T05:06:17;26.75;;;15.50;;
26582;SDS011;14230;45.382;10.998;2023-03-01T05:08:45;27.73;;;15.68;;
26582;SDS011;14230;45.382;10.998;2023-03-01T05:11:13;29.50;;;16.13;;
26582;SDS011;14230;45.382;10.998;2023-03-01T05:13:40;28.45;;;16.13;;
26582;SDS011;14230;45.382;10.998;2023-03-01T05:16:08;29.75;;;15.73;;
26582;SDS011;14230;45.382;10.998;2023-03-01T05:18:38;29.17;;;16.30;;
26582;SDS011;14230;45.382;10.998;2023-03-01T05:21:08;29.27;;;16.10;;
26582;SDS011;14230;45.382;10.998;2023-03-01T05:23:37;29.25;;;16.40;;
26582;SDS011;14230;45.382;10.998;2023-03-01T05:26:05;27.75;;;15.55;;
26582;SDS011;14230;45.382;10.998;2023-03-01T05:28:37;37.92;;;16.63;;
26582;SDS011;14230;45.382;10.998;2023-03-01T05:31:06;28.02;;;16.05;;
26582;SDS011;14230;45.382;10.998;2023-03-01T05:33:37;26.23;;;12.60;;
26582;SDS011;14230;45.382;10.998;2023-03-01T05:36:05;28.95;;;16.20;;
26582;SDS011;14230;45.382;10.998;2023-03-01T05:38:36;30.05;;;16.15;;
26582;SDS011;14230;45.382;10.998;2023-03-01T05:41:04;29.20;;;16.02;;
26582;SDS011;14230;45.382;10.998;2023-03-01T05:43:31;33.42;;;16.85;;
26582;SDS011;14230;45.382;10.998;2023-03-01T05:46:00;33.60;;;17.40;;
26582;SDS011;14230;45.382;10.998;2023-03-01T05:48:28;31.50;;;17.23;;
26582;SDS011;14230;45.382;10.998;2023-03-01T05:50:57;34.53;;;18.10;;
26582;SDS011;14230;45.382;10.998;2023-03-01T05:53:27;33.70;;;16.77;;
26582;SDS011;14230;45.382;10.998;2023-03-01T05:55:54;33.05;;;17.05;;
26582;SDS011;14230;45.382;10.998;2023-03-01T05:58:22;32.38;;;18.25;;
26582;SDS011;14230;45.382;10.998;2023-03-01T06:00:50;39.38;;;18.45;;
26582;SDS011;14230;45.382;10.998;2023-03-01T06:03:20;35.53;;;18.27;;
26582;SDS011;14230;45.382;10.998;2023-03-01T06:05:48;35.08;;;18.38;;
26582;SDS011;14230;45.382;10.998;2023-03-01T06:08:15;35.17;;;18.65;;
26582;SDS011;14230;45.382;10.998;2023-03-01T06:10:43;31.42;;;18.55;;
26582;SDS011;14230;45.382;10.998;2023-03-01T06:13:10;36.85;;;19.05;;
26582;SDS011;14230;45.382;10.998;2023-03-01T06:15:38;38.47;;;18.00;;
26582;SDS011;14230;45.382;10.998;2023-03-01T06:18:05;35.92;;;18.50;;
26582;SDS011;14230;45.382;10.998;2023-03-01T06:20:33;51.45;;;24.08;;
26582;SDS011;14230;45.382;10.998;2023-03-01T06:23:00;39.47;;;20.15;;
26582;SDS011;14230;45.382;10.998;2023-03-01T06:25:28;37.38;;;20.02;;
26582;SDS011;14230;45.382;10.998;2023-03-01T06:27:56;41.65;;;20.50;;
26582;SDS011;14230;45.382;10.998;2023-03-01T06:30:24;38.50;;;20.45;;
26582;SDS011;14230;45.382;10.998;2023-03-01T06:32:52;39.13;;;21.98;;
26582;SDS011;14230;45.382;10.998;2023-03-01T06:35:28;38.80;;;20.33;;
26582;SDS011;14230;45.382;10.998;2023-03-01T06:37:57;45.67;;;21.95;;
26582;SDS011;14230;45.382;10.998;2023-03-01T06:40:27;42.13;;;22.40;;
26582;SDS011;14230;45.382;10.998;2023-03-01T06:42:55;40.97;;;21.35;;
26582;SDS011;14230;45.382;10.998;2023-03-01T06:45:22;45.90;;;21.00;;
26582;SDS011;14230;45.382;10.998;2023-03-01T06:47:50;36.35;;;20.50;;
26582;SDS011;14230;45.382;10.998;2023-03-01T06:50:18;34.60;;;19.17;;
26582;SDS011;14230;45.382;10.998;2023-03-01T06:52:46;42.13;;;20.13;;
26582;SDS011;14230;45.382;10.998;2023-03-01T06:55:13;44.35;;;19.80;;
26582;SDS011;14230;45.382;10.998;2023-03-01T06:57:41;42.20;;;20.58;;
26582;SDS011;14230;45.382;10.998;2023-03-01T07:00:09;35.97;;;18.88;;
26582;SDS011;14230;45.382;10.998;2023-03-01T07:02:37;45.15;;;18.77;;
26582;SDS011;14230;45.382;10.998;2023-03-01T07:05:04;49.40;;;19.85;;
26582;SDS011;14230;45.382;10.998;2023-03-01T07:07:33;36.05;;;20.50;;
26582;SDS011;14230;45.382;10.998;2023-03-01T07:10:01;41.40;;;20.02;;
26582;SDS011;14230;45.382;10.998;2023-03-01T07:12:28;38.13;;;20.20;;
26582;SDS011;14230;45.382;10.998;2023-03-01T07:14:56;44.28;;;20.95;;
26582;SDS011;14230;45.382;10.998;2023-03-01T07:17:23;43.92;;;20.95;;
26582;SDS011;14230;45.382;10.998;2023-03-01T07:19:51;36.03;;;20.13;;
26582;SDS011;14230;45.382;10.998;2023-03-01T07:22:20;43.83;;;22.17;;
26582;SDS011;14230;45.382;10.998;2023-03-01T07:24:49;45.20;;;21.20;;
26582;SDS011;14230;45.382;10.998;2023-03-01T07:27:19;42.63;;;22.50;;
26582;SDS011;14230;45.382;10.998;2023-03-01T07:29:47;40.72;;;22.13;;
26582;SDS011;14230;45.382;10.998;2023-03-01T07:32:14;43.35;;;21.90;;
26582;SDS011;14230;45.382;10.998;2023-03-01T07:34:42;37.78;;;21.42;;
26582;SDS011;14230;45.382;10.998;2023-03-01T07:37:10;41.67;;;24.90;;
26582;SDS011;14230;45.382;10.998;2023-03-01T07:39:37;43.22;;;22.05;;
26582;SDS011;14230;45.382;10.998;2023-03-01T07:42:05;38.80;;;20.80;;
26582;SDS011;14230;45.382;10.998;2023-03-01T07:44:32;37.67;;;21.48;;
26582;SDS011;14230;45.382;10.998;2023-03-01T07:47:01;38.58;;;20.50;;
26582;SDS011;14230;45.382;10.998;2023-03-01T07:49:29;46.50;;;21.42;;
26582;SDS011;14230;45.382;10.998;2023-03-01T07:51:57;42.38;;;21.13;;
26582;SDS011;14230;45.382;10.998;2023-03-01T07:54:25;49.38;;;23.38;;
26582;SDS011;14230;45.382;10.998;2023-03-01T07:56:53;42.10;;;22.45;;
26582;SDS011;14230;45.382;10.998;2023-03-01T07:59:21;40.97;;;22.33;;
26582;SDS011;14230;45.382;10.998;2023-03-01T08:01:50;49.28;;;23.00;;
26582;SDS011;14230;45.382;10.998;2023-03-01T08:04:17;43.92;;;22.58;;
26582;SDS011;14230;45.382;10.998;2023-03-01T08:06:45;48.70;;;22.38;;
26582;SDS011;14230;45.382;10.998;2023-03-01T08:09:12;45.80;;;22.73;;
26582;SDS011;14230;45.382;10.998;2023-03-01T08:11:40;48.60;;;24.65;;
26582;SDS011;14230;45.382;10.998;2023-03-01T08:14:07;45.25;;;22.98;;
26582;SDS011;14230;45.382;10.998;2023-03-01T08:16:35;42.88;;;22.15;;
26582;SDS011;14230;45.382;10.998;2023-03-01T08:19:03;50.83;;;23.50;;
26582;SDS011;14230;45.382;10.998;2023-03-01T08:21:32;43.88;;;20.60;;
26582;SDS011;14230;45.382;10.998;2023-03-01T08:24:02;38.80;;;20.63;;
26582;SDS011;14230;45.382;10.998;2023-03-01T08:26:30;37.67;;;19.35;;
26582;SDS011;14230;45.382;10.998;2023-03-01T08:28:59;36.92;;;20.83;;
26582;SDS011;14230;45.382;10.998;2023-03-01T08:31:32;36.58;;;20.20;;
26582;SDS011;14230;45.382;10.998;2023-03-01T08:34:05;35.13;;;20.08;;
26582;SDS011;14230;45.382;10.998;2023-03-01T08:36:36;38.25;;;21.10;;
26582;SDS011;14230;45.382;10.998;2023-03-01T08:39:07;39.17;;;20.83;;
26582;SDS011;14230;45.382;10.998;2023-03-01T08:41:36;37.90;;;21.23;;
26582;SDS011;14230;45.382;10.998;2023-03-01T08:44:04;45.63;;;21.88;;
26582;SDS011;14230;45.382;10.998;2023-03-01T08:46:33;41.15;;;22.38;;
26582;SDS011;14230;45.382;10.998;2023-03-01T08:49:13;43.78;;;22.27;;
26582;SDS011;14230;45.382;10.998;2023-03-01T08:51:42;45.75;;;21.92;;
26582;SDS011;14230;45.382;10.998;2023-03-01T08:54:18;51.08;;;22.70;;
26582;SDS011;14230;45.382;10.998;2023-03-01T08:56:47;41.35;;;22.63;;
26582;SDS011;14230;45.382;10.998;2023-03-01T08:59:15;40.00;;;21.88;;
26582;SDS011;14230;45.382;10.998;2023-03-01T09:01:44;40.63;;;22.67;;
26582;SDS011;14230;45.382;10.998;2023-03-01T09:04:12;41.15;;;24.05;;
26582;SDS011;14230;45.382;10.998;2023-03-01T09:06:41;48.83;;;24.58;;
26582;SDS011;14230;45.382;10.998;2023-03-01T09:09:15;43.40;;;24.27;;
26582;SDS011;14230;45.382;10.998;2023-03-01T09:11:44;43.20;;;24.58;;
26582;SDS011;14230;45.382;10.998;2023-03-01T09:14:13;46.53;;;23.65;;
26582;SDS011;14230;45.382;10.998;2023-03-01T09:16:41;47.38;;;24.40;;
26582;SDS011;14230;45.382;10.998;2023-03-01T09:19:09;46.58;;;24.58;;
26582;SDS011;14230;45.382;10.998;2023-03-01T09:21:37;45.80;;;23.77;;
26582;SDS011;14230;45.382;10.998;2023-03-01T09:24:11;42.63;;;22.98;;
26582;SDS011;14230;45.382;10.998;2023-03-01T09:26:41;50.92;;;23.80;;
26582;SDS011;14230;45.382;10.998;2023-03-01T09:29:09;46.30;;;21.67;;
26582;SDS011;14230;45.382;10.998;2023-03-01T09:31:37;37.90;;;22.40;;
26582;SDS011;14230;45.382;10.998;2023-03-01T09:34:05;39.75;;;22.17;;
26582;SDS011;14230;45.382;10.998;2023-03-01T09:36:32;44.85;;;22.63;;
26582;SDS011;14230;45.382;10.998;2023-03-01T09:39:00;46.13;;;24.20;;
26582;SDS011;14230;45.382;10.998;2023-03-01T09:47:04;36.28;;;20.67;;
26582;SDS011;14230;45.382;10.998;2023-03-01T09:49:36;39.35;;;20.40;;
26582;SDS011;14230;45.382;10.998;2023-03-01T09:55:17;35.47;;;20.48;;
26582;SDS011;14230;45.382;10.998;2023-03-01T09:57:55;45.15;;;19.85;;
26582;SDS011;14230;45.382;10.998;2023-03-01T10:00:42;35.88;;;19.20;;
26582;SDS011;14230;45.382;10.998;2023-03-01T10:03:21;37.80;;;19.42;;
26582;SDS011;14230;45.382;10.998;2023-03-01T10:06:02;41.25;;;20.98;;
26582;SDS011;14230;45.382;10.998;2023-03-01T10:08:40;34.47;;;18.25;;
26582;SDS011;14230;45.382;10.998;2023-03-01T10:11:23;35.90;;;19.77;;
26582;SDS011;14230;45.382;10.998;2023-03-01T10:16:46;45.25;;;22.73;;
26582;SDS011;14230;45.382;10.998;2023-03-01T10:19:30;34.08;;;19.30;;
26582;SDS011;14230;45.382;10.998;2023-03-01T10:24:51;35.63;;;17.80;;
26582;SDS011;14230;45.382;10.998;2023-03-01T10:27:42;35.47;;;18.27;;
26582;SDS011;14230;45.382;10.998;2023-03-01T10:32:47;33.10;;;19.10;;
26582;SDS011;14230;45.382;10.998;2023-03-01T10:35:22;32.65;;;16.98;;
26582;SDS011;14230;45.382;10.998;2023-03-01T10:38:08;40.30;;;19.27;;
26582;SDS011;14230;45.382;10.998;2023-03-01T10:40:49;35.67;;;19.95;;
26582;SDS011;14230;45.382;10.998;2023-03-01T10:43:17;37.50;;;20.13;;
26582;SDS011;14230;45.382;10.998;2023-03-01T10:45:45;32.58;;;19.38;;
26582;SDS011;14230;45.382;10.998;2023-03-01T10:50:45;36.25;;;19.33;;
26582;SDS011;14230;45.382;10.998;2023-03-01T10:53:27;34.72;;;18.10;;
26582;SDS011;14230;45.382;10.998;2023-03-01T10:56:06;41.80;;;20.15;;
26582;SDS011;14230;45.382;10.998;2023-03-01T10:58:36;44.67;;;20.20;;
26582;SDS011;14230;45.382;10.998;2023-03-01T11:03:42;36.70;;;18.40;;
26582;SDS011;14230;45.382;10.998;2023-03-01T11:08:44;31.95;;;19.05;;
26582;SDS011;14230;45.382;10.998;2023-03-01T11:14:01;34.90;;;17.20;;
26582;SDS011;14230;45.382;10.998;2023-03-01T11:17:10;35.20;;;19.10;;
26582;SDS011;14230;45.382;10.998;2023-03-01T11:19:42;35.17;;;20.98;;
26582;SDS011;14230;45.382;10.998;2023-03-01T11:22:26;40.45;;;17.90;;
26582;SDS011;14230;45.382;10.998;2023-03-01T11:24:54;37.85;;;20.83;;
26582;SDS011;14230;45.382;10.998;2023-03-01T11:27:40;33.92;;;19.20;;
26582;SDS011;14230;45.382;10.998;2023-03-01T11:31:12;40.35;;;19.67;;
26582;SDS011;14230;45.382;10.998;2023-03-01T11:33:42;45.20;;;22.95;;
26582;SDS011;14230;45.382;10.998;2023-03-01T11:42:09;32.75;;;18.80;;
26582;SDS011;14230;45.382;10.998;2023-03-01T11:44:46;31.73;;;18.38;;
26582;SDS011;14230;45.382;10.998;2023-03-01T11:53:09;34.85;;;17.35;;
26582;SDS011;14230;45.382;10.998;2023-03-01T11:55:58;32.67;;;18.83;;
26582;SDS011;14230;45.382;10.998;2023-03-01T12:26:06;20.08;;;11.95;;
26582;SDS011;14230;45.382;10.998;2023-03-01T12:29:18;24.08;;;12.00;;
26582;SDS011;14230;45.382;10.998;2023-03-01T12:51:06;24.90;;;11.02;;
26582;SDS011;14230;45.382;10.998;2023-03-01T12:53:42;22.58;;;10.98;;
26582;SDS011;14230;45.382;10.998;2023-03-01T12:56:16;29.40;;;10.65;;
26582;SDS011;14230;45.382;10.998;2023-03-01T12:58:54;22.83;;;9.25;;
26582;SDS011;14230;45.382;10.998;2023-03-01T13:04:36;18.58;;;8.75;;
26582;SDS011;14230;45.382;10.998;2023-03-01T13:15:46;30.38;;;12.05;;
26582;SDS011;14230;45.382;10.998;2023-03-01T13:23:12;33.65;;;11.60;;
26582;SDS011;14230;45.382;10.998;2023-03-01T13:30:59;42.33;;;16.02;;
26582;SDS011;14230;45.382;10.998;2023-03-01T13:35:55;41.60;;;13.18;;
26582;SDS011;14230;45.382;10.998;2023-03-01T13:46:53;20.77;;;7.15;;
26582;SDS011;14230;45.382;10.998;2023-03-01T13:49:27;15.95;;;6.70;;
26582;SDS011;14230;45.382;10.998;2023-03-01T13:54:55;17.30;;;7.57;;
26582;SDS011;14230;45.382;10.998;2023-03-01T13:57:25;18.42;;;7.40;;
26582;SDS011;14230;45.382;10.998;2023-03-01T13:59:56;20.65;;;8.40;;
26582;SDS011;14230;45.382;10.998;2023-03-01T14:02:24;14.32;;;6.82;;
26582;SDS011;14230;45.382;10.998;2023-03-01T14:04:57;16.35;;;8.10;;
26582;SDS011;14230;45.382;10.998;2023-03-01T14:07:27;19.67;;;8.88;;
26582;SDS011;14230;45.382;10.998;2023-03-01T14:09:58;16.58;;;8.27;;
26582;SDS011;14230;45.382;10.998;2023-03-01T14:12:39;20.15;;;8.43;;
26582;SDS011;14230;45.382;10.998;2023-03-01T14:18:26;19.77;;;9.05;;
26582;SDS011;14230;45.382;10.998;2023-03-01T14:21:13;18.60;;;9.18;;
26582;SDS011;14230;45.382;10.998;2023-03-01T14:23:42;18.08;;;7.97;;
26582;SDS011;14230;45.382;10.998;2023-03-01T14:26:10;20.20;;;10.43;;
26582;SDS011;14230;45.382;10.998;2023-03-01T14:28:38;28.38;;;12.85;;
26582;SDS011;14230;45.382;10.998;2023-03-01T14:34:18;14.52;;;7.82;;
26582;SDS011;14230;45.382;10.998;2023-03-01T14:36:47;36.67;;;10.35;;
26582;SDS011;14230;45.382;10.998;2023-03-01T14:39:16;19.60;;;10.75;;
26582;SDS011;14230;45.382;10.998;2023-03-01T14:41:50;17.85;;;8.15;;
26582;SDS011;14230;45.382;10.998;2023-03-01T14:44:22;15.88;;;7.55;;
26582;SDS011;14230;45.382;10.998;2023-03-01T14:46:52;17.33;;;9.43;;
26582;SDS011;14230;45.382;10.998;2023-03-01T14:49:26;13.40;;;8.52;;
26582;SDS011;14230;45.382;10.998;2023-03-01T14:57:30;14.18;;;7.45;;
26582;SDS011;14230;45.382;10.998;2023-03-01T14:59:59;17.40;;;8.32;;
26582;SDS011;14230;45.382;10.998;2023-03-01T15:02:31;19.55;;;8.80;;
26582;SDS011;14230;45.382;10.998;2023-03-01T15:05:01;19.52;;;8.20;;
26582;SDS011;14230;45.382;10.998;2023-03-01T15:07:38;17.73;;;8.25;;
26582;SDS011;14230;45.382;10.998;2023-03-01T15:10:16;20.05;;;9.43;;
26582;SDS011;14230;45.382;10.998;2023-03-01T15:12:49;18.08;;;8.35;;
26582;SDS011;14230;45.382;10.998;2023-03-01T15:18:01;16.48;;;8.07;;
26582;SDS011;14230;45.382;10.998;2023-03-01T15:20:31;16.95;;;9.45;;
26582;SDS011;14230;45.382;10.998;2023-03-01T15:23:03;18.60;;;9.85;;
26582;SDS011;14230;45.382;10.998;2023-03-01T15:25:32;24.75;;;10.50;;
26582;SDS011;14230;45.382;10.998;2023-03-01T15:28:00;22.70;;;11.13;;
26582;SDS011;14230;45.382;10.998;2023-03-01T15:35:52;20.67;;;10.70;;
26582;SDS011;14230;45.382;10.998;2023-03-01T15:43:53;37.00;;;16.00;;
26582;SDS011;14230;45.382;10.998;2023-03-01T15:46:24;38.70;;;18.10;;
26582;SDS011;14230;45.382;10.998;2023-03-01T15:49:01;25.90;;;11.30;;
26582;SDS011;14230;45.382;10.998;2023-03-01T15:51:46;27.38;;;12.52;;
26582;SDS011;14230;45.382;10.998;2023-03-01T15:54:17;26.83;;;14.25;;
26582;SDS011;14230;45.382;10.998;2023-03-01T15:56:46;21.63;;;10.85;;
26582;SDS011;14230;45.382;10.998;2023-03-01T15:59:14;17.00;;;11.00;;
26582;SDS011;14230;45.382;10.998;2023-03-01T16:01:41;23.15;;;12.02;;
26582;SDS011;14230;45.382;10.998;2023-03-01T16:04:12;21.40;;;11.75;;
26582;SDS011;14230;45.382;10.998;2023-03-01T16:06:47;29.80;;;12.68;;
26582;SDS011;14230;45.382;10.998;2023-03-01T16:09:21;34.97;;;15.77;;
26582;SDS011;14230;45.382;10.998;2023-03-01T16:11:50;32.78;;;15.00;;
26582;SDS011;14230;45.382;10.998;2023-03-01T16:14:19;38.55;;;16.70;;
26582;SDS011;14230;45.382;10.998;2023-03-01T16:16:47;38.80;;;20.67;;
26582;SDS011;14230;45.382;10.998;2023-03-01T16:19:17;23.35;;;11.50;;
26582;SDS011;14230;45.382;10.998;2023-03-01T16:21:45;23.73;;;14.05;;
26582;SDS011;14230;45.382;10.998;2023-03-01T16:24:13;26.67;;;13.90;;
26582;SDS011;14230;45.382;10.998;2023-03-01T16:26:41;19.15;;;11.88;;
26582;SDS011;14230;45.382;10.998;2023-03-01T16:29:09;21.98;;;11.80;;
26582;SDS011;14230;45.382;10.998;2023-03-01T16:31:36;23.35;;;12.32;;
26582;SDS011;14230;45.382;10.998;2023-03-01T16:34:04;21.65;;;10.73;;
26582;SDS011;14230;45.382;10.998;2023-03-01T16:36:31;17.10;;;11.05;;
26582;SDS011;14230;45.382;10.998;2023-03-01T16:38:59;27.42;;;15.80;;
26582;SDS011;14230;45.382;10.998;2023-03-01T16:41:31;18.00;;;11.52;;
26582;SDS011;14230;45.382;10.998;2023-03-01T16:43:59;26.25;;;11.52;;
26582;SDS011;14230;45.382;10.998;2023-03-01T16:46:28;18.13;;;11.52;;
26582;SDS011;14230;45.382;10.998;2023-03-01T16:48:56;21.05;;;11.80;;
26582;SDS011;14230;45.382;10.998;2023-03-01T16:51:24;24.02;;;11.25;;
26582;SDS011;14230;45.382;10.998;2023-03-01T16:53:52;33.22;;;17.45;;
26582;SDS011;14230;45.382;10.998;2023-03-01T16:56:20;27.77;;;16.63;;
26582;SDS011;14230;45.382;10.998;2023-03-01T16:58:48;27.85;;;16.65;;
26582;SDS011;14230;45.382;10.998;2023-03-01T17:01:17;21.13;;;13.00;;
26582;SDS011;14230;45.382;10.998;2023-03-01T17:03:46;29.60;;;16.50;;
26582;SDS011;14230;45.382;10.998;2023-03-01T17:06:19;20.33;;;11.27;;
26582;SDS011;14230;45.382;10.998;2023-03-01T17:08:48;23.77;;;11.73;;
26582;SDS011;14230;45.382;10.998;2023-03-01T17:11:17;23.83;;;11.95;;